createdAt,value
2022-12-23T00:03:18.403Z,9.48
2022-12-23T00:08:20.839Z,8.38
2022-12-23T00:13:39.099Z,8.10
2022-12-23T00:18:41.005Z,8.00
2022-12-23T00:23:46.878Z,8.25
2022-12-23T00:28:47.558Z,8.25
2022-12-23T00:33:51.346Z,7.60
2022-12-23T00:39:11.015Z,6.47
2022-12-23T00:44:11.687Z,6.90
2022-12-23T00:49:31.612Z,6.38
2022-12-23T00:54:33.769Z,6.28
2022-12-23T00:59:34.543Z,5.85
2022-12-23T01:04:53.205Z,5.88
2022-12-23T01:09:55.206Z,5.80
2022-12-23T01:14:55.891Z,6.05
2022-12-23T01:19:56.568Z,5.90
2022-12-23T01:24:58.595Z,5.57
2022-12-23T01:29:59.246Z,4.80
2022-12-23T01:34:59.974Z,5.68
2022-12-23T01:40:02.023Z,5.07
2022-12-23T01:45:06.145Z,5.30
2022-12-23T01:50:13.461Z,4.65
2022-12-23T01:55:19.134Z,4.93
2022-12-23T02:00:37.262Z,5.05
2022-12-23T02:05:39.153Z,5.78
2022-12-23T02:11:09.545Z,4.65
2022-12-23T02:16:20.337Z,4.72
2022-12-23T02:21:32.893Z,4.50
2022-12-23T02:27:04.234Z,4.22
2022-12-23T02:32:13.803Z,4.38
2022-12-23T02:37:22.079Z,3.75
2022-12-23T02:42:26.700Z,3.92
2022-12-23T02:47:34.189Z,4.50
2022-12-23T02:52:37.367Z,4.15
2022-12-23T02:57:43.693Z,3.40
2022-12-23T03:02:46.208Z,3.35
2022-12-23T03:07:48.160Z,3.78
2022-12-23T03:12:59.025Z,3.92
2022-12-23T03:18:06.946Z,3.20
2022-12-23T03:23:20.255Z,2.95
2022-12-23T03:28:28.036Z,3.00
2022-12-23T03:33:33.960Z,3.15
2022-12-23T03:38:39.859Z,2.55
2022-12-23T03:43:50.446Z,2.38
2022-12-23T03:48:57.649Z,2.50
2022-12-23T03:54:02.698Z,2.38
2022-12-23T03:59:12.104Z,2.58
2022-12-23T04:04:22.268Z,2.97
2022-12-23T04:09:26.304Z,2.60
2022-12-23T04:14:26.966Z,3.08
2022-12-23T04:19:29.164Z,2.50
2022-12-23T04:24:29.853Z,3.20
2022-12-23T04:29:30.560Z,3.10
2022-12-23T04:34:32.593Z,2.90
2022-12-23T04:39:33.244Z,1.70
2022-12-23T04:44:33.942Z,2.50
2022-12-23T04:49:39.680Z,1.75
2022-12-23T04:54:45.930Z,1.92
2022-12-23T05:00:15.818Z,1.50
2022-12-23T05:05:18.214Z,1.38
2022-12-23T05:10:19.077Z,0.70
2022-12-23T05:15:19.700Z,0.50
2022-12-23T05:20:21.702Z,0.50
2022-12-23T05:25:22.324Z,0.50
2022-12-23T05:30:23.002Z,0.40
2022-12-23T05:35:26.693Z,0.52
2022-12-23T05:40:29.183Z,0.38
2022-12-23T05:45:30.347Z,0.45
2022-12-23T05:50:32.424Z,0.40
2022-12-23T05:55:36.456Z,0.57
2022-12-23T06:00:37.131Z,0.43
2022-12-23T06:05:39.826Z,0.40
2022-12-23T06:10:40.478Z,0.43
2022-12-23T06:15:41.193Z,0.30
2022-12-23T06:20:46.053Z,0.50
2022-12-23T06:25:46.709Z,0.68
2022-12-23T06:30:47.361Z,0.43
2022-12-23T06:35:49.424Z,0.60
2022-12-23T06:40:50.346Z,0.30
2022-12-23T06:45:51.746Z,0.47
2022-12-23T06:50:53.830Z,0.63
2022-12-23T06:56:00.830Z,0.50
2022-12-23T07:01:01.578Z,0.65
2022-12-23T07:06:04.104Z,0.50
2022-12-23T07:11:05.600Z,0.50
2022-12-23T07:16:08.200Z,0.47
2022-12-23T07:21:19.779Z,0.90
2022-12-23T07:26:25.620Z,0.55
2022-12-23T07:31:26.288Z,0.60
2022-12-23T07:36:28.340Z,0.60
2022-12-23T07:41:28.988Z,0.70
2022-12-23T07:46:35.939Z,0.70
2022-12-23T07:51:37.985Z,0.60
2022-12-23T07:56:38.658Z,0.70
2022-12-23T08:01:39.532Z,0.88
2022-12-23T08:06:41.675Z,0.77
2022-12-23T08:11:42.422Z,0.98
2022-12-23T08:16:44.275Z,0.60
2022-12-23T08:21:46.567Z,0.55
2022-12-23T08:26:47.232Z,0.60
2022-12-23T08:31:48.024Z,0.77
2022-12-23T08:36:50.026Z,0.70
2022-12-23T08:41:50.800Z,0.88
2022-12-23T08:46:51.608Z,0.90
2022-12-23T08:51:53.785Z,0.65
2022-12-23T08:56:54.554Z,0.50
2022-12-23T09:01:55.448Z,0.52
2022-12-23T09:06:57.478Z,0.85
2022-12-23T09:11:58.211Z,0.90
2022-12-23T09:17:00.115Z,0.60
2022-12-23T09:22:02.233Z,0.82
2022-12-23T09:27:02.907Z,0.60
2022-12-23T09:32:03.631Z,0.50
2022-12-23T09:37:05.640Z,0.68
2022-12-23T09:42:16.410Z,0.60
2022-12-23T09:47:20.114Z,0.70
2022-12-23T09:52:26.310Z,0.80
2022-12-23T09:57:35.344Z,0.75
2022-12-23T10:02:50.048Z,0.95
2022-12-23T10:07:56.886Z,0.80
2022-12-23T10:13:01.473Z,0.75
2022-12-23T10:18:06.334Z,0.90
2022-12-23T10:23:16.863Z,0.90
2022-12-23T10:28:17.619Z,0.88
2022-12-23T10:33:22.684Z,0.73
2022-12-23T10:38:35.152Z,1.00
2022-12-23T10:43:46.953Z,0.93
2022-12-23T10:48:57.101Z,0.88
2022-12-23T10:54:05.009Z,0.75
2022-12-23T10:59:13.224Z,0.90
2022-12-23T11:04:17.310Z,1.20
2022-12-23T11:09:22.857Z,1.08
2022-12-23T11:14:36.337Z,0.95
2022-12-23T11:19:37.306Z,0.95
2022-12-23T11:24:43.173Z,1.20
2022-12-23T11:29:47.244Z,1.00
2022-12-23T11:34:49.448Z,0.98
2022-12-23T11:39:51.648Z,1.27
2022-12-23T11:44:56.050Z,1.10
2022-12-23T11:49:58.624Z,1.20
2022-12-23T11:55:02.519Z,1.08
2022-12-23T12:00:06.094Z,1.23
2022-12-23T12:05:20.061Z,0.95
2022-12-23T12:10:26.633Z,0.90
2022-12-23T12:15:36.428Z,1.42
2022-12-23T12:20:40.270Z,0.98
2022-12-23T12:25:47.250Z,0.90
2022-12-23T12:30:53.368Z,1.05
2022-12-23T12:36:10.176Z,1.02
2022-12-23T12:41:19.460Z,0.98
2022-12-23T12:46:29.994Z,1.20
2022-12-23T12:51:38.293Z,0.90
2022-12-23T12:56:45.283Z,1.40
2022-12-23T13:01:56.702Z,1.10
2022-12-23T13:07:05.742Z,0.85
2022-12-23T13:12:17.232Z,1.20
2022-12-23T13:17:22.659Z,1.33
2022-12-23T13:22:28.205Z,0.80
2022-12-23T13:27:34.141Z,0.95
2022-12-23T13:33:12.679Z,1.00
2022-12-23T13:38:31.119Z,1.38
2022-12-23T13:43:43.330Z,1.05
2022-12-23T13:48:53.412Z,1.10
2022-12-23T13:54:04.879Z,1.40
2022-12-23T13:59:11.281Z,1.17
2022-12-23T14:04:36.804Z,0.90
2022-12-23T14:09:40.824Z,1.30
2022-12-23T14:14:55.476Z,1.05
2022-12-23T14:20:09.239Z,1.85
2022-12-23T14:25:32.484Z,3.53
2022-12-23T14:30:37.257Z,2.50
2022-12-23T14:35:55.298Z,2.38
2022-12-23T14:41:01.278Z,1.10
2022-12-23T14:46:05.798Z,1.40
2022-12-23T14:51:26.299Z,1.17
2022-12-23T14:56:37.578Z,1.33
2022-12-23T15:01:42.066Z,1.50
2022-12-23T15:06:45.948Z,1.20
2022-12-23T15:11:46.859Z,1.00
2022-12-23T15:16:48.962Z,1.40
2022-12-23T15:21:59.591Z,1.75
2022-12-23T15:32:29.953Z,2.13
2022-12-23T15:37:32.445Z,2.33
2022-12-23T15:42:35.427Z,1.88
2022-12-23T15:47:41.786Z,1.92
2022-12-23T15:52:46.055Z,2.13
2022-12-23T15:57:50.584Z,2.15
2022-12-23T16:03:01.490Z,2.75
2022-12-23T16:08:11.943Z,2.15
2022-12-23T16:13:18.958Z,2.25
2022-12-23T16:18:24.289Z,2.80
2022-12-23T16:23:30.206Z,2.80
2022-12-23T16:28:36.927Z,2.97
2022-12-23T16:33:44.479Z,2.85
2022-12-23T16:38:45.638Z,2.70
2022-12-23T16:43:52.158Z,2.83
2022-12-23T16:48:58.262Z,3.40
2022-12-23T16:53:59.138Z,3.17
2022-12-23T16:58:59.830Z,3.47
2022-12-23T17:04:02.176Z,3.35
2022-12-23T17:09:03.321Z,3.65
2022-12-23T17:14:07.856Z,3.65
2022-12-23T17:19:12.892Z,3.88
2022-12-23T17:24:18.659Z,4.15
2022-12-23T17:29:20.672Z,4.70
2022-12-23T17:34:25.388Z,3.78
2022-12-23T17:39:26.694Z,5.00
2022-12-23T17:44:27.498Z,4.30
2022-12-23T17:49:29.499Z,4.97
2022-12-23T17:54:30.307Z,4.78
2022-12-23T17:59:30.977Z,4.65
2022-12-23T18:04:33.028Z,4.70
2022-12-23T18:09:33.672Z,4.78
2022-12-23T18:14:34.374Z,5.72
2022-12-23T18:19:36.536Z,5.00
2022-12-23T18:24:37.241Z,5.03
2022-12-23T18:29:37.899Z,5.20
2022-12-23T18:34:39.939Z,6.35
2022-12-23T18:39:40.727Z,5.97
2022-12-23T18:44:43.134Z,5.70
2022-12-23T18:49:45.163Z,6.75
2022-12-23T18:54:45.848Z,6.97
2022-12-23T18:59:46.605Z,7.20
2022-12-23T19:04:48.666Z,7.00
2022-12-23T19:09:49.490Z,6.72
2022-12-23T19:14:50.289Z,7.88
2022-12-23T19:19:52.305Z,6.85
2022-12-23T19:25:05.342Z,8.00
2022-12-23T19:30:07.897Z,9.75
2022-12-23T19:35:13.962Z,11.07
2022-12-23T19:40:14.808Z,12.73
2022-12-23T19:45:17.102Z,20.45
2022-12-23T19:50:20.097Z,8.90
2022-12-23T19:55:20.866Z,7.32
2022-12-23T20:00:21.674Z,6.47
2022-12-23T20:05:23.843Z,7.15
2022-12-23T20:10:24.718Z,6.43
2022-12-23T20:15:25.412Z,7.57
2022-12-23T20:20:27.684Z,8.07
2022-12-23T20:25:28.434Z,8.40
2022-12-23T20:30:29.226Z,8.20
2022-12-23T20:35:32.069Z,9.65
2022-12-23T20:40:32.869Z,8.60
2022-12-23T20:45:33.580Z,9.32
2022-12-23T20:50:39.190Z,9.52
2022-12-23T20:55:39.927Z,9.35
2022-12-23T21:00:41.789Z,9.52
2022-12-23T21:05:43.937Z,8.05
2022-12-23T21:10:44.719Z,8.20
2022-12-23T21:15:45.470Z,7.18
2022-12-23T21:20:47.496Z,7.60
2022-12-23T21:25:48.188Z,6.70
2022-12-23T21:30:48.902Z,6.47
2022-12-23T21:35:50.933Z,6.35
2022-12-23T21:40:51.623Z,6.57
2022-12-23T21:45:57.829Z,6.03
2022-12-23T21:51:05.825Z,6.28
2022-12-23T21:56:10.016Z,5.88
2022-12-23T22:01:13.748Z,6.18
2022-12-23T22:06:17.747Z,5.72
2022-12-23T22:11:20.957Z,6.43
2022-12-23T22:16:23.655Z,5.85
2022-12-23T22:21:27.491Z,5.47
2022-12-23T22:26:30.995Z,4.70
2022-12-23T22:31:35.405Z,5.07
2022-12-23T22:36:37.788Z,5.40
2022-12-23T22:41:38.486Z,5.70
2022-12-23T22:46:39.144Z,5.45
2022-12-23T22:51:42.412Z,4.05
2022-12-23T22:56:43.391Z,2.90
2022-12-23T23:01:44.156Z,2.30
2022-12-23T23:06:46.224Z,1.83
2022-12-23T23:11:47.076Z,1.20
2022-12-23T23:16:47.752Z,0.60
2022-12-23T23:21:49.810Z,0.60
2022-12-23T23:26:50.464Z,0.60
2022-12-23T23:31:51.224Z,0.80
2022-12-23T23:36:53.265Z,0.85
2022-12-23T23:41:54.197Z,1.02
2022-12-23T23:46:54.949Z,0.75
2022-12-23T23:51:56.964Z,0.98
2022-12-23T23:56:57.621Z,0.93
